Time;durP1;ratioP1;P1;durP2;ratioP2;P2;SDS_P1;SDS_P2;PMS_P1;PMS_P2;Temp;Humidity;BMP_temperature;BMP_pressure;BME280_temperature;BME280_humidity;BME280_pressure;Samples;Min_cycle;Max_cycle;Signal;HPM_P1;HPM_P2
2023/01/08 00:02:09;;;;;;;15.73;14.63;;;10.50;99.90;;;;;;5096891;28;20040;-72
2023/01/08 00:04:34;;;;;;;16.10;14.90;;;10.60;99.90;;;;;;5099762;28;20110;-72
2023/01/08 00:07:00;;;;;;;14.30;13.30;;;10.70;99.90;;;;;;5099659;28;20170;-72
2023/01/08 00:09:26;;;;;;;14.55;13.40;;;10.70;99.90;;;;;;5098939;28;20090;-72
2023/01/08 00:11:52;;;;;;;13.95;12.95;;;10.70;99.90;;;;;;5099650;28;20530;-72
2023/01/08 00:14:18;;;;;;;13.95;13.05;;;10.60;99.90;;;;;;5099867;28;20130;-73
2023/01/08 00:16:43;;;;;;;15.30;14.10;;;10.70;99.90;;;;;;5099803;28;20114;-73
2023/01/08 00:19:11;;;;;;;15.10;14.10;;;10.60;99.90;;;;;;5099714;28;20417;-72
2023/01/08 00:21:37;;;;;;;14.77;13.68;;;10.70;99.90;;;;;;5098502;28;20054;-73
2023/01/08 00:24:03;;;;;;;14.73;13.73;;;10.70;99.90;;;;;;5099661;28;20119;-72
2023/01/08 00:26:28;;;;;;;16.20;15.05;;;10.80;99.90;;;;;;5098440;28;20044;-72
2023/01/08 00:28:54;;;;;;;15.95;14.60;;;10.80;99.90;;;;;;5099224;28;20093;-72
2023/01/08 00:31:20;;;;;;;14.95;13.95;;;10.80;99.90;;;;;;5099500;28;20040;-73
2023/01/08 00:33:45;;;;;;;17.10;15.85;;;10.90;99.90;;;;;;5099501;28;20040;-72
2023/01/08 00:36:14;;;;;;;16.33;15.13;;;11.00;99.90;;;;;;5099455;28;20040;-73
2023/01/08 00:38:40;;;;;;;15.93;14.80;;;10.90;99.90;;;;;;5099074;28;20058;-72
2023/01/08 00:41:06;;;;;;;15.18;13.98;;;10.80;99.90;;;;;;5098989;28;20066;-72
2023/01/08 00:43:32;;;;;;;15.68;14.65;;;10.80;99.90;;;;;;5099336;28;20032;-72
2023/01/08 00:45:57;;;;;;;16.42;15.13;;;10.80;99.90;;;;;;5098896;28;20448;-72
2023/01/08 00:48:26;;;;;;;15.38;14.15;;;10.70;99.90;;;;;;5098950;28;20055;-73
2023/01/08 00:50:53;;;;;;;15.95;14.75;;;10.70;99.90;;;;;;5099160;28;20040;-72
2023/01/08 00:53:20;;;;;;;15.73;14.63;;;10.80;99.90;;;;;;5099105;28;20090;-72
2023/01/08 00:55:46;;;;;;;15.75;14.73;;;10.80;99.90;;;;;;5099062;28;20321;-72
2023/01/08 00:58:12;;;;;;;17.25;16.05;;;10.80;99.90;;;;;;5097338;28;20044;-72
2023/01/08 01:00:38;;;;;;;16.13;15.02;;;10.90;99.90;;;;;;5098990;28;20366;-72
2023/01/08 01:03:04;;;;;;;17.83;16.52;;;10.90;99.90;;;;;;5098870;28;20129;-72
2023/01/08 01:05:30;;;;;;;17.02;15.82;;;10.90;99.90;;;;;;5098556;28;20421;-72
2023/01/08 01:07:56;;;;;;;16.63;15.57;;;10.80;99.90;;;;;;5098842;28;20047;-73
2023/01/08 01:10:22;;;;;;;16.42;15.30;;;10.90;99.90;;;;;;5098516;28;20036;-72
2023/01/08 01:12:48;;;;;;;17.25;16.08;;;10.80;99.90;;;;;;5098435;28;20036;-72
2023/01/08 01:15:15;;;;;;;18.00;16.73;;;10.80;99.90;;;;;;5097783;28;20097;-72
2023/01/08 01:17:43;;;;;;;17.95;16.75;;;10.80;99.90;;;;;;5098528;28;20043;-72
2023/01/08 01:20:12;;;;;;;19.15;17.70;;;10.80;99.90;;;;;;5098582;28;20047;-72
2023/01/08 01:22:38;;;;;;;17.83;16.73;;;10.90;99.90;;;;;;5098212;28;20480;-72
2023/01/08 01:25:04;;;;;;;18.65;17.45;;;10.90;99.90;;;;;;5098433;28;20115;-72
2023/01/08 01:27:30;;;;;;;17.88;16.63;;;10.90;99.90;;;;;;5097478;28;20079;-72
2023/01/08 01:29:55;;;;;;;18.00;16.80;;;10.80;99.90;;;;;;5097678;28;20069;-72
2023/01/08 01:32:21;;;;;;;20.80;19.38;;;10.80;99.90;;;;;;5098055;28;20085;-73
2023/01/08 01:34:47;;;;;;;20.58;19.38;;;11.00;99.90;;;;;;5098327;28;20042;-72
2023/01/08 01:37:14;;;;;;;20.42;19.23;;;10.90;99.90;;;;;;5098055;28;20039;-72
2023/01/08 01:39:42;;;;;;;19.52;18.23;;;10.90;99.90;;;;;;5096868;28;20486;-72
2023/01/08 01:42:38;;;;;;;20.20;18.92;;;10.90;99.90;;;;;;5098185;28;20080;-73
2023/01/08 01:44:58;;;;;;;20.83;19.33;;;10.90;99.90;;;;;;5097787;28;20056;-73
2023/01/08 01:47:31;;;;;;;20.70;19.55;;;10.90;99.90;;;;;;5098025;28;20047;-73
2023/01/08 01:50:27;;;;;;;19.58;18.27;;;10.90;99.90;;;;;;5098073;28;20040;-72
2023/01/08 01:52:56;;;;;;;18.83;17.73;;;10.80;99.90;;;;;;5098030;28;20064;-72
2023/01/08 01:55:21;;;;;;;17.88;16.60;;;10.70;99.90;;;;;;5097905;28;20036;-73
2023/01/08 01:57:57;;;;;;;18.20;17.00;;;10.60;99.90;;;;;;5097399;28;20047;-73
2023/01/08 02:00:23;;;;;;;18.33;17.27;;;10.80;99.90;;;;;;5097890;28;20318;-73
2023/01/08 02:02:50;;;;;;;20.75;19.20;;;10.80;99.90;;;;;;5097770;28;20758;-73
2023/01/08 02:05:16;;;;;;;22.02;20.73;;;10.90;99.90;;;;;;5097401;28;20115;-73
2023/01/08 02:07:51;;;;;;;20.98;19.73;;;10.90;99.90;;;;;;5097703;28;20055;-73
2023/01/08 02:10:25;;;;;;;19.48;18.05;;;10.90;99.90;;;;;;5097678;28;20091;-72
2023/01/08 02:12:56;;;;;;;19.15;17.75;;;10.70;99.90;;;;;;5097686;28;20086;-72
2023/01/08 02:15:38;;;;;;;18.55;17.33;;;10.70;99.90;;;;;;5097609;28;20119;-72
2023/01/08 02:18:08;;;;;;;16.58;15.38;;;10.70;99.90;;;;;;5097487;28;20044;-72
2023/01/08 02:20:48;;;;;;;15.07;13.63;;;10.60;99.90;;;;;;5097466;28;20097;-72
2023/01/08 02:23:31;;;;;;;13.95;12.82;;;10.50;99.90;;;;;;5097519;28;20036;-72
2023/01/08 02:26:04;;;;;;;16.10;12.80;;;10.40;99.90;;;;;;5097283;28;20032;-72
2023/01/08 02:28:41;;;;;;;14.73;11.88;;;10.40;99.90;;;;;;5096758;28;20082;-72
2023/01/08 02:31:07;;;;;;;14.57;11.90;;;10.50;99.90;;;;;;5096010;28;20043;-72
2023/01/08 02:33:33;;;;;;;13.88;12.60;;;10.60;99.90;;;;;;5097011;28;20413;-72
2023/01/08 02:36:24;;;;;;;16.52;11.80;;;10.50;99.90;;;;;;5097275;28;20039;-72
2023/01/08 02:39:05;;;;;;;11.90;10.68;;;10.30;99.90;;;;;;5095797;28;20467;-73
2023/01/08 02:41:38;;;;;;;14.85;10.13;;;10.50;99.90;;;;;;5097188;28;20040;-72
2023/01/08 02:44:07;;;;;;;10.50;9.02;;;10.30;99.90;;;;;;5097035;28;20051;-72
2023/01/08 02:46:35;;;;;;;12.02;9.85;;;10.30;99.90;;;;;;5096739;28;20047;-72
2023/01/08 02:49:06;;;;;;;13.65;9.75;;;10.40;99.90;;;;;;5097075;28;20051;-72
2023/01/08 02:51:43;;;;;;;10.55;8.40;;;10.40;99.90;;;;;;5097073;28;20121;-72
2023/01/08 02:54:15;;;;;;;9.73;8.50;;;10.30;99.90;;;;;;5078933;28;20093;-73
2023/01/08 02:56:46;;;;;;;11.85;7.70;;;10.10;99.90;;;;;;5097034;28;20055;-72
2023/01/08 02:59:14;;;;;;;12.07;8.80;;;10.00;99.90;;;;;;5096508;28;20051;-72
2023/01/08 03:01:41;;;;;;;16.40;9.80;;;10.10;99.90;;;;;;5096912;28;20040;-72
2023/01/08 03:04:12;;;;;;;13.55;9.70;;;10.10;99.90;;;;;;5095833;28;20314;-72
2023/01/08 03:06:38;;;;;;;14.15;9.63;;;10.10;99.90;;;;;;5097286;28;20039;-73
2023/01/08 03:09:05;;;;;;;16.50;11.23;;;10.20;99.90;;;;;;5096850;28;20083;-72
2023/01/08 03:11:40;;;;;;;11.52;10.23;;;10.20;99.90;;;;;;5096860;28;20067;-73
2023/01/08 03:14:10;;;;;;;12.25;10.30;;;10.20;99.90;;;;;;5096604;28;20432;-72
2023/01/08 03:16:57;;;;;;;12.55;10.20;;;10.30;99.90;;;;;;5096780;28;20044;-73
2023/01/08 03:19:31;;;;;;;16.42;11.05;;;10.30;99.90;;;;;;5096456;28;20048;-72
2023/01/08 03:21:58;;;;;;;14.05;10.40;;;10.30;99.90;;;;;;5096531;28;20111;-72
2023/01/08 03:24:28;;;;;;;15.93;11.57;;;10.10;99.90;;;;;;5096532;28;20040;-72
2023/01/08 03:26:57;;;;;;;13.15;11.80;;;10.20;99.90;;;;;;5096139;28;20076;-72
2023/01/08 03:29:25;;;;;;;12.90;11.38;;;10.20;99.90;;;;;;5095138;28;20051;-72
2023/01/08 03:31:59;;;;;;;13.57;12.00;;;10.30;99.90;;;;;;5096459;28;20052;-72
2023/01/08 03:34:27;;;;;;;14.60;11.93;;;10.10;99.90;;;;;;5096446;28;20040;-73
2023/01/08 03:36:57;;;;;;;14.63;11.48;;;10.10;99.90;;;;;;5096632;28;20066;-73
2023/01/08 03:39:29;;;;;;;15.15;12.25;;;10.00;99.90;;;;;;5100154;28;20050;-72
2023/01/08 03:41:58;;;;;;;13.75;12.60;;;10.20;99.90;;;;;;5100218;28;20062;-72
2023/01/08 03:44:25;;;;;;;15.73;12.73;;;10.00;99.90;;;;;;5100224;28;20075;-73
2023/01/08 03:46:54;;;;;;;17.50;11.52;;;10.00;99.90;;;;;;5100473;28;20113;-73
2023/01/08 03:49:24;;;;;;;14.43;12.23;;;10.10;99.90;;;;;;5100060;28;20105;-72
2023/01/08 03:51:50;;;;;;;14.25;12.80;;;10.20;99.90;;;;;;5100336;28;20083;-73
2023/01/08 03:54:22;;;;;;;14.77;13.48;;;10.30;99.90;;;;;;5099943;28;20068;-72
2023/01/08 03:56:48;;;;;;;14.68;13.35;;;10.30;99.90;;;;;;5100274;28;20048;-73
2023/01/08 03:59:14;;;;;;;14.18;13.02;;;10.20;99.90;;;;;;5099392;28;20329;-72
2023/01/08 04:01:41;;;;;;;14.40;13.15;;;10.30;99.90;;;;;;5099200;28;20040;-73
2023/01/08 04:04:07;;;;;;;23.50;13.95;;;10.30;99.90;;;;;;5098831;28;20050;-72
2023/01/08 04:06:32;;;;;;;14.10;12.73;;;10.30;99.90;;;;;;5100069;28;20115;-73
2023/01/08 04:08:58;;;;;;;14.65;13.18;;;10.30;99.90;;;;;;5099030;28;20079;-72
2023/01/08 04:11:24;;;;;;;15.85;13.73;;;10.20;99.90;;;;;;5098930;28;20051;-73
2023/01/08 04:13:50;;;;;;;16.67;14.80;;;10.00;99.90;;;;;;5099941;28;20036;-73
2023/01/08 04:16:15;;;;;;;16.95;15.30;;;10.00;99.90;;;;;;5098515;28;20101;-72
2023/01/08 04:18:41;;;;;;;17.80;16.30;;;9.80;99.90;;;;;;5099746;28;20032;-73
2023/01/08 04:21:06;;;;;;;17.77;16.33;;;9.70;99.90;;;;;;5099730;28;20043;-72
2023/01/08 04:23:32;;;;;;;18.35;16.75;;;9.70;99.90;;;;;;5098473;28;20040;-72
2023/01/08 04:25:58;;;;;;;18.38;16.52;;;9.70;99.90;;;;;;5099358;28;20029;-73
2023/01/08 04:28:24;;;;;;;18.17;16.80;;;9.70;99.90;;;;;;5098903;28;20084;-72
2023/01/08 04:30:50;;;;;;;20.10;18.52;;;9.60;99.90;;;;;;5098272;28;20047;-72
2023/01/08 04:33:16;;;;;;;20.80;19.20;;;9.60;99.90;;;;;;5099509;28;20043;-72
2023/01/08 04:35:41;;;;;;;21.42;19.67;;;9.70;99.90;;;;;;5098195;28;20051;-73
2023/01/08 04:38:07;;;;;;;21.45;19.80;;;9.70;99.90;;;;;;5099348;28;20032;-72
2023/01/08 04:40:33;;;;;;;22.95;20.90;;;9.70;99.90;;;;;;5099424;28;20044;-72
2023/01/08 04:42:59;;;;;;;22.98;21.33;;;9.70;99.90;;;;;;5081163;28;20409;-72
2023/01/08 04:45:25;;;;;;;23.25;21.70;;;9.80;99.90;;;;;;5098963;28;20047;-73
2023/01/08 04:47:58;;;;;;;23.40;21.67;;;9.90;99.90;;;;;;5099200;28;20128;-73
2023/01/08 04:50:24;;;;;;;23.95;22.05;;;9.90;99.90;;;;;;5097846;28;20514;-73
2023/01/08 04:52:50;;;;;;;23.15;21.35;;;9.90;99.90;;;;;;5098885;28;20051;-72
2023/01/08 04:55:16;;;;;;;22.58;20.90;;;9.80;99.90;;;;;;5098798;28;20040;-72
2023/01/08 04:57:42;;;;;;;22.15;20.75;;;9.90;99.90;;;;;;5098729;28;20453;-72
2023/01/08 05:00:08;;;;;;;23.27;21.35;;;9.80;99.90;;;;;;5098665;28;20055;-72
2023/01/08 05:02:34;;;;;;;23.98;22.02;;;10.00;99.90;;;;;;5098954;28;20040;-73
2023/01/08 05:05:00;;;;;;;24.30;22.67;;;9.90;99.90;;;;;;5097915;28;20032;-73
2023/01/08 05:07:25;;;;;;;24.35;22.20;;;10.10;99.90;;;;;;5098854;28;20089;-72
2023/01/08 05:09:51;;;;;;;23.65;21.80;;;10.10;99.90;;;;;;5098854;28;20078;-73
2023/01/08 05:12:17;;;;;;;22.35;20.75;;;10.20;99.90;;;;;;5098454;28;20036;-73
2023/01/08 05:14:43;;;;;;;22.15;20.40;;;10.20;99.90;;;;;;5098731;28;20036;-73
2023/01/08 05:17:09;;;;;;;21.92;20.40;;;10.20;99.90;;;;;;5098643;28;20073;-73
2023/01/08 05:19:35;;;;;;;21.35;19.92;;;10.10;99.90;;;;;;5098564;28;20043;-72
2023/01/08 05:22:00;;;;;;;22.27;20.77;;;10.00;99.90;;;;;;5097340;28;20052;-72
2023/01/08 05:24:26;;;;;;;21.88;20.38;;;10.00;99.90;;;;;;5098500;28;20047;-72
2023/01/08 05:26:51;;;;;;;20.90;19.25;;;10.00;99.90;;;;;;5098295;28;20040;-72
2023/01/08 05:29:17;;;;;;;20.67;19.35;;;10.10;99.90;;;;;;5097823;28;20097;-72
2023/01/08 05:31:43;;;;;;;20.50;18.98;;;10.10;99.90;;;;;;5098097;28;20051;-72
2023/01/08 05:34:09;;;;;;;20.35;18.55;;;10.20;99.90;;;;;;5098373;28;20048;-72
2023/01/08 05:36:35;;;;;;;20.17;18.77;;;10.10;99.90;;;;;;5098290;28;20044;-73
2023/01/08 05:39:00;;;;;;;19.95;18.45;;;10.20;99.90;;;;;;5098118;28;20475;-73
2023/01/08 05:41:26;;;;;;;20.25;18.50;;;10.10;99.90;;;;;;5098186;28;20455;-73
2023/01/08 05:43:52;;;;;;;19.85;18.40;;;10.10;99.90;;;;;;5098200;28;20137;-73
2023/01/08 05:46:17;;;;;;;20.10;18.63;;;10.10;99.90;;;;;;5097707;28;20118;-72
2023/01/08 05:48:43;;;;;;;20.45;18.67;;;10.20;99.90;;;;;;5098089;28;20093;-72
2023/01/08 05:51:09;;;;;;;19.42;17.98;;;10.00;99.90;;;;;;5098034;28;20115;-72
2023/01/08 05:53:34;;;;;;;19.13;17.92;;;9.90;99.90;;;;;;5096750;28;20048;-72
2023/01/08 05:56:06;;;;;;;19.13;17.55;;;10.00;99.90;;;;;;5097987;28;20036;-72
2023/01/08 05:58:32;;;;;;;19.77;17.95;;;10.10;99.90;;;;;;5097401;28;20043;-73
2023/01/08 06:01:06;;;;;;;20.55;18.85;;;10.00;99.90;;;;;;5097427;28;20036;-72
2023/01/08 06:03:32;;;;;;;20.50;19.20;;;10.10;99.90;;;;;;5097849;28;20364;-73
2023/01/08 06:06:03;;;;;;;21.05;19.45;;;10.30;99.90;;;;;;5097795;28;20036;-73
2023/01/08 06:08:29;;;;;;;20.25;18.83;;;10.30;99.90;;;;;;5097711;28;20039;-72
2023/01/08 06:11:03;;;;;;;20.55;18.75;;;10.40;99.90;;;;;;5097341;28;20039;-73
2023/01/08 06:13:29;;;;;;;20.15;18.85;;;10.40;99.90;;;;;;5098146;28;20044;-73
2023/01/08 06:15:57;;;;;;;19.50;18.20;;;10.40;99.90;;;;;;5097636;28;20044;-72
2023/01/08 06:18:22;;;;;;;19.92;18.45;;;10.40;99.90;;;;;;5097484;28;20043;-72
2023/01/08 06:20:48;;;;;;;19.50;18.13;;;10.20;99.90;;;;;;5097503;28;20333;-73
2023/01/08 06:23:13;;;;;;;19.10;17.80;;;10.10;99.90;;;;;;5097424;28;20402;-73
2023/01/08 06:25:39;;;;;;;19.48;17.88;;;10.20;99.90;;;;;;5097431;28;20329;-72
2023/01/08 06:28:05;;;;;;;21.35;19.92;;;10.20;99.90;;;;;;5095655;28;20452;-73
2023/01/08 06:30:30;;;;;;;21.05;19.75;;;10.30;99.90;;;;;;5097362;28;20044;-72
2023/01/08 06:32:57;;;;;;;21.02;19.70;;;10.40;99.90;;;;;;5097307;28;20036;-72
2023/01/08 06:35:23;;;;;;;21.08;19.67;;;10.40;99.90;;;;;;5097027;28;20417;-72
2023/01/08 06:37:49;;;;;;;21.38;20.02;;;10.30;99.90;;;;;;5097166;28;20403;-73
2023/01/08 06:40:15;;;;;;;21.27;19.80;;;10.30;99.90;;;;;;5097206;28;20047;-72
2023/01/08 06:42:42;;;;;;;21.95;20.20;;;10.40;99.90;;;;;;5095860;28;20044;-72
2023/01/08 06:45:08;;;;;;;21.15;19.95;;;10.50;99.90;;;;;;5096818;28;20314;-73
2023/01/08 06:47:34;;;;;;;19.40;18.15;;;10.60;99.90;;;;;;5096823;28;20052;-72
2023/01/08 06:50:00;;;;;;;20.80;19.05;;;10.40;99.90;;;;;;5097069;28;20115;-72
2023/01/08 06:52:26;;;;;;;20.10;18.77;;;10.20;99.90;;;;;;5097066;28;20324;-73
2023/01/08 06:54:52;;;;;;;22.80;20.65;;;10.20;99.90;;;;;;5097008;28;20036;-73
2023/01/08 06:57:17;;;;;;;22.05;20.13;;;10.00;99.90;;;;;;5096952;28;20036;-72
2023/01/08 06:59:43;;;;;;;23.17;21.45;;;10.10;99.90;;;;;;5096495;28;20043;-72
2023/01/08 07:02:16;;;;;;;21.10;19.42;;;10.00;99.90;;;;;;5096612;28;20044;-72
2023/01/08 07:04:42;;;;;;;22.02;20.08;;;9.90;99.90;;;;;;5096940;28;20104;-73
2023/01/08 07:07:13;;;;;;;20.50;18.75;;;9.90;99.90;;;;;;5096591;28;20414;-72
2023/01/08 07:09:40;;;;;;;21.60;19.98;;;9.90;99.90;;;;;;5096047;28;20051;-72
2023/01/08 07:12:10;;;;;;;21.27;19.52;;;9.90;99.90;;;;;;5097101;28;20043;-73
2023/01/08 07:14:36;;;;;;;20.25;18.75;;;9.90;99.90;;;;;;5101068;28;20051;-73
2023/01/08 07:17:01;;;;;;;21.30;19.15;;;9.90;99.90;;;;;;5100948;28;20039;-72
2023/01/08 07:19:27;;;;;;;18.70;17.40;;;9.90;99.90;;;;;;5100611;28;20040;-72
2023/01/08 07:21:53;;;;;;;19.52;18.17;;;9.90;99.90;;;;;;5100893;28;20158;-73
2023/01/08 07:24:18;;;;;;;18.30;16.92;;;10.00;99.90;;;;;;5100895;28;20034;-72
2023/01/08 07:26:44;;;;;;;17.55;16.33;;;10.10;99.90;;;;;;5100785;28;20121;-73
2023/01/08 07:29:09;;;;;;;19.08;17.13;;;9.90;99.90;;;;;;5100324;28;20036;-72
2023/01/08 07:31:35;;;;;;;19.00;17.55;;;9.90;99.90;;;;;;5100721;28;20047;-72
2023/01/08 07:34:01;;;;;;;21.92;19.67;;;9.90;99.90;;;;;;5100688;28;20040;-72
2023/01/08 07:36:26;;;;;;;18.73;17.10;;;9.90;99.90;;;;;;5100639;28;20390;-72
2023/01/08 07:38:52;;;;;;;18.75;17.25;;;9.90;99.90;;;;;;5100195;28;20068;-73
2023/01/08 07:41:18;;;;;;;18.50;16.85;;;9.90;99.90;;;;;;5100580;28;20075;-72
2023/01/08 07:43:46;;;;;;;18.02;16.98;;;9.90;99.90;;;;;;5100504;28;20482;-73
2023/01/08 07:46:12;;;;;;;18.10;16.70;;;9.80;99.90;;;;;;5100156;28;20318;-72
2023/01/08 07:48:37;;;;;;;17.63;16.50;;;9.70;99.90;;;;;;5100450;28;20078;-72
2023/01/08 07:51:05;;;;;;;18.77;17.30;;;9.70;99.90;;;;;;5099431;28;20040;-72
2023/01/08 07:53:31;;;;;;;17.50;16.23;;;9.60;99.90;;;;;;5100080;28;20413;-72
2023/01/08 07:56:01;;;;;;;18.25;16.25;;;9.60;99.90;;;;;;5098999;28;20047;-72
2023/01/08 07:58:27;;;;;;;19.15;17.85;;;9.50;99.90;;;;;;5099468;28;20035;-72
2023/01/08 08:00:53;;;;;;;19.08;17.58;;;9.50;99.90;;;;;;5100176;28;20104;-73
2023/01/08 08:03:19;;;;;;;18.70;17.00;;;9.30;99.90;;;;;;5099842;28;20043;-72
2023/01/08 08:05:44;;;;;;;18.70;17.05;;;9.40;99.90;;;;;;5099880;28;20040;-72
2023/01/08 08:08:11;;;;;;;19.42;17.25;;;9.30;99.90;;;;;;5099079;28;20032;-72
2023/01/08 08:10:38;;;;;;;18.08;16.45;;;9.30;99.90;;;;;;5099718;28;20453;-73
2023/01/08 08:13:04;;;;;;;18.92;17.20;;;9.40;99.90;;;;;;5099898;28;20072;-72
2023/01/08 08:15:30;;;;;;;19.08;17.27;;;9.40;99.90;;;;;;5099909;28;20093;-72
2023/01/08 08:17:56;;;;;;;17.13;15.77;;;9.40;99.90;;;;;;5099784;28;20306;-72
2023/01/08 08:20:21;;;;;;;18.58;16.92;;;9.30;99.90;;;;;;5099823;28;20032;-72
2023/01/08 08:22:47;;;;;;;17.67;16.15;;;9.10;99.90;;;;;;5098081;28;20036;-73
2023/01/08 08:25:15;;;;;;;17.00;15.70;;;9.00;99.90;;;;;;5099447;28;20106;-72
2023/01/08 08:27:42;;;;;;;17.75;16.00;;;9.10;99.90;;;;;;5099667;28;20036;-72
2023/01/08 08:30:10;;;;;;;16.42;15.07;;;9.10;99.90;;;;;;5098192;28;20079;-72
2023/01/08 08:32:36;;;;;;;17.52;16.00;;;9.20;99.90;;;;;;5099583;28;20115;-72
2023/01/08 08:35:02;;;;;;;16.92;15.27;;;9.20;99.90;;;;;;5098548;28;20116;-72
2023/01/08 08:37:27;;;;;;;18.33;16.40;;;9.30;99.90;;;;;;5098165;28;20093;-72
2023/01/08 08:39:53;;;;;;;18.17;16.55;;;9.30;99.90;;;;;;5098808;28;20040;-72
2023/01/08 08:42:19;;;;;;;17.30;16.10;;;9.40;99.90;;;;;;5099054;28;20047;-73
2023/01/08 08:44:44;;;;;;;18.55;16.88;;;9.50;99.90;;;;;;5099097;28;20055;-72
2023/01/08 08:47:10;;;;;;;18.35;16.85;;;9.50;99.90;;;;;;5099331;28;20129;-72
2023/01/08 08:49:36;;;;;;;17.58;16.00;;;9.50;99.90;;;;;;5099258;28;20040;-72
2023/01/08 08:52:03;;;;;;;17.02;15.63;;;9.50;99.90;;;;;;5099269;28;20058;-72
2023/01/08 08:54:29;;;;;;;16.63;14.88;;;9.70;99.90;;;;;;5099130;28;20043;-72
2023/01/08 08:56:54;;;;;;;16.50;15.00;;;9.50;99.90;;;;;;5097768;28;20054;-72
2023/01/08 08:59:20;;;;;;;15.77;14.52;;;9.30;99.90;;;;;;5097402;28;20072;-72
2023/01/08 09:01:45;;;;;;;14.93;13.50;;;9.40;99.90;;;;;;5098747;28;20421;-72
2023/01/08 09:04:11;;;;;;;15.55;14.00;;;9.40;99.90;;;;;;5099009;28;20093;-72
2023/01/08 09:06:37;;;;;;;17.63;13.75;;;9.40;99.90;;;;;;5098953;28;20040;-72
2023/01/08 09:09:03;;;;;;;16.80;15.05;;;9.30;99.90;;;;;;5098837;28;20046;-72
2023/01/08 09:11:29;;;;;;;18.80;15.32;;;9.30;99.90;;;;;;5098826;28;20040;-72
2023/01/08 09:13:55;;;;;;;16.92;15.20;;;9.40;99.90;;;;;;5098776;28;20044;-72
2023/01/08 09:16:21;;;;;;;15.63;14.23;;;9.40;99.90;;;;;;5098760;28;20353;-72
2023/01/08 09:18:47;;;;;;;15.00;13.57;;;9.30;99.90;;;;;;5098564;28;20036;-72
2023/01/08 09:21:13;;;;;;;14.93;13.23;;;9.40;99.90;;;;;;5097654;28;20047;-72
2023/01/08 09:23:39;;;;;;;15.40;13.90;;;9.20;99.90;;;;;;5098270;28;20039;-72
2023/01/08 09:26:05;;;;;;;16.15;14.68;;;9.30;99.90;;;;;;5098542;28;20036;-72
2023/01/08 09:28:31;;;;;;;15.40;13.98;;;9.40;99.90;;;;;;5097822;28;20421;-72
2023/01/08 09:31:03;;;;;;;15.45;13.82;;;9.40;99.90;;;;;;5098421;28;20444;-72
2023/01/08 09:33:30;;;;;;;15.90;13.48;;;9.40;99.90;;;;;;5098463;28;20064;-72
2023/01/08 09:35:55;;;;;;;14.15;12.82;;;9.50;99.90;;;;;;5097621;28;20051;-72
2023/01/08 09:38:21;;;;;;;12.93;11.80;;;9.50;99.90;;;;;;5098261;28;20028;-72
2023/01/08 09:40:59;;;;;;;16.13;11.63;;;9.50;99.90;;;;;;5097025;28;20093;-72
2023/01/08 09:43:30;;;;;;;15.07;12.45;;;9.60;99.90;;;;;;5097977;28;20040;-69
2023/01/08 09:45:59;;;;;;;14.60;13.05;;;9.70;99.90;;;;;;5097629;28;20113;-69
2023/01/08 09:48:33;;;;;;;12.93;11.55;;;9.70;99.90;;;;;;5098166;28;20052;-69
2023/01/08 09:50:59;;;;;;;13.98;11.90;;;9.70;99.90;;;;;;5098101;28;20036;-70
2023/01/08 09:53:25;;;;;;;14.73;10.95;;;9.80;99.90;;;;;;5098036;28;20306;-71
2023/01/08 09:55:59;;;;;;;12.23;10.57;;;9.80;99.90;;;;;;5098051;28;20051;-68
2023/01/08 09:58:37;;;;;;;11.25;9.35;;;9.70;99.90;;;;;;5079301;28;20040;-70
2023/01/08 10:01:05;;;;;;;13.30;9.05;;;9.70;99.90;;;;;;5097941;28;20039;-70
2023/01/08 10:03:58;;;;;;;10.10;9.13;;;9.70;99.90;;;;;;5096823;28;20040;-70
2023/01/08 10:06:24;;;;;;;9.95;9.07;;;9.70;99.90;;;;;;5089888;28;20047;-70
2023/01/08 10:08:51;;;;;;;19.73;9.50;;;9.60;99.90;;;;;;5097488;28;20425;-69
2023/01/08 10:11:18;;;;;;;9.80;7.80;;;9.70;99.90;;;;;;5097419;28;20398;-69
2023/01/08 10:13:50;;;;;;;16.77;8.70;;;9.70;99.90;;;;;;5096554;28;20048;-70
2023/01/08 10:16:25;;;;;;;9.32;8.52;;;9.80;99.90;;;;;;5096324;28;20422;-70
2023/01/08 10:18:50;;;;;;;15.05;7.82;;;10.00;99.90;;;;;;5097514;28;20310;-69
2023/01/08 10:21:16;;;;;;;10.35;7.30;;;10.10;99.90;;;;;;5097533;28;20040;-70
2023/01/08 10:23:52;;;;;;;10.40;6.30;;;10.20;99.90;;;;;;5096791;28;20302;-70
2023/01/08 10:26:27;;;;;;;8.90;6.93;;;10.10;99.90;;;;;;5096148;28;20425;-69
2023/01/08 10:29:06;;;;;;;10.65;6.20;;;10.20;99.90;;;;;;5096921;28;20052;-70
2023/01/08 10:31:32;;;;;;;7.60;5.50;;;10.30;99.90;;;;;;5097396;28;20040;-70
2023/01/08 10:34:08;;;;;;;9.00;5.70;;;10.30;99.90;;;;;;5097511;28;20043;-69
2023/01/08 10:36:39;;;;;;;8.10;5.18;;;10.40;99.90;;;;;;5097268;28;20055;-71
2023/01/08 10:39:05;;;;;;;11.57;9.10;;;10.30;99.90;;;;;;5097171;28;20096;-71
2023/01/08 10:41:38;;;;;;;12.23;5.70;;;10.50;99.90;;;;;;5097193;28;20120;-68
2023/01/08 10:44:12;;;;;;;14.35;5.47;;;10.50;99.90;;;;;;5097208;28;20048;-71
2023/01/08 10:46:43;;;;;;;12.15;5.47;;;10.60;99.90;;;;;;5096686;28;20438;-70
2023/01/08 10:49:32;;;;;;;9.48;5.00;;;10.60;99.90;;;;;;5097126;28;20096;-72
2023/01/08 10:51:59;;;;;;;10.70;5.18;;;10.60;99.90;;;;;;5097101;28;20321;-71
2023/01/08 10:54:35;;;;;;;14.63;5.55;;;10.70;99.90;;;;;;5097029;28;20337;-72
2023/01/08 10:57:00;;;;;;;10.90;5.57;;;10.80;99.90;;;;;;5097080;28;20074;-71
2023/01/08 10:59:26;;;;;;;8.90;5.40;;;10.60;99.90;;;;;;5095275;28;20079;-70
2023/01/08 11:01:55;;;;;;;15.25;6.25;;;10.60;99.90;;;;;;5097075;28;20036;-71
2023/01/08 11:04:22;;;;;;;16.63;6.07;;;10.60;99.90;;;;;;5096605;28;20431;-70
2023/01/08 11:06:48;;;;;;;10.10;5.72;;;10.50;99.90;;;;;;5096587;28;20444;-69
2023/01/08 11:09:26;;;;;;;10.68;5.30;;;10.50;99.90;;;;;;5096830;28;20059;-69
2023/01/08 11:11:52;;;;;;;11.02;5.03;;;10.30;99.90;;;;;;5096863;28;20451;-69
2023/01/08 11:14:25;;;;;;;10.35;4.82;;;10.40;99.90;;;;;;5097028;28;20076;-69
2023/01/08 11:16:52;;;;;;;11.35;4.88;;;10.50;99.90;;;;;;5096857;28;20419;-69
2023/01/08 11:19:29;;;;;;;12.93;4.97;;;10.50;99.90;;;;;;5096379;28;20036;-69
2023/01/08 11:21:56;;;;;;;10.43;4.68;;;10.50;99.90;;;;;;5096779;28;20047;-69
2023/01/08 11:24:31;;;;;;;12.60;4.68;;;10.50;99.90;;;;;;5095754;28;20113;-70
2023/01/08 11:27:00;;;;;;;15.18;5.55;;;10.60;99.90;;;;;;5097198;28;20105;-70
2023/01/08 11:29:33;;;;;;;7.50;4.55;;;10.80;99.90;;;;;;5096057;28;20098;-70
2023/01/08 11:32:14;;;;;;;15.38;5.82;;;10.90;99.90;;;;;;5096724;28;20044;-70
2023/01/08 11:35:11;;;;;;;14.55;4.25;;;11.30;99.90;;;;;;5096702;28;20169;-69
2023/01/08 11:37:42;;;;;;;14.32;4.68;;;11.10;99.90;;;;;;5096712;28;20043;-69
2023/01/08 11:40:17;;;;;;;16.63;4.65;;;11.20;99.90;;;;;;5096672;28;20071;-69
2023/01/08 11:43:00;;;;;;;11.18;4.13;;;11.00;99.90;;;;;;5096545;28;20044;-70
2023/01/08 11:46:04;;;;;;;8.95;3.70;;;10.80;99.90;;;;;;5096265;28;20089;-69
2023/01/08 11:48:48;;;;;;;17.90;3.70;;;11.20;99.90;;;;;;5096531;28;20056;-69
2023/01/08 11:51:33;;;;;;;12.45;3.50;;;11.60;99.90;;;;;;5096525;28;20050;-70
2023/01/08 11:54:17;;;;;;;17.17;3.95;;;11.30;99.90;;;;;;5096147;28;20048;-70
2023/01/08 11:56:46;;;;;;;10.18;3.70;;;11.50;99.90;;;;;;5096463;28;20123;-69
2023/01/08 11:59:32;;;;;;;11.85;3.67;;;11.80;99.90;;;;;;5097927;28;20410;-70
2023/01/08 12:02:50;;;;;;;10.00;3.85;;;11.90;99.90;;;;;;5100426;28;20040;-70
2023/01/08 12:05:54;;;;;;;13.90;4.00;;;11.60;99.90;;;;;;5076750;28;20337;-71
2023/01/08 12:08:39;;;;;;;11.93;3.78;;;11.70;99.90;;;;;;5099151;28;20089;-73
2023/01/08 12:11:19;;;;;;;14.88;3.55;;;11.70;99.90;;;;;;5100076;28;20039;-71
2023/01/08 12:14:22;;;;;;;12.00;3.42;;;11.70;99.90;;;;;;5099995;28;20044;-71
2023/01/08 12:17:11;;;;;;;13.88;3.42;;;11.70;99.90;;;;;;5099895;28;20044;-70
2023/01/08 12:20:02;;;;;;;17.83;4.70;;;11.70;99.90;;;;;;5099409;28;20440;-71
2023/01/08 12:23:05;;;;;;;12.35;3.72;;;11.60;99.90;;;;;;5099504;28;20449;-71
2023/01/08 12:25:33;;;;;;;13.18;3.72;;;11.20;99.90;;;;;;5062402;28;20346;-72
2023/01/08 12:28:13;;;;;;;16.80;3.65;;;11.30;99.90;;;;;;5099758;28;20113;-71
2023/01/08 12:30:59;;;;;;;15.90;3.40;;;11.60;99.90;;;;;;5099362;28;20055;-70
2023/01/08 12:33:57;;;;;;;17.98;3.92;;;11.70;99.90;;;;;;5099269;28;20044;-71
2023/01/08 12:36:28;;;;;;;11.68;3.30;;;11.40;99.90;;;;;;5099108;28;20040;-70
2023/01/08 12:39:03;;;;;;;28.92;5.32;;;11.10;99.90;;;;;;5099469;28;20040;-69
2023/01/08 12:41:32;;;;;;;11.10;3.78;;;11.10;99.90;;;;;;5099482;28;20085;-70
2023/01/08 12:44:10;;;;;;;13.77;4.00;;;11.20;99.90;;;;;;5099404;28;20051;-70
2023/01/08 12:46:44;;;;;;;105.47;11.18;;;11.40;99.90;;;;;;5098034;28;20051;-68